Wilson North — 9HA2312 — position and weather

sailwx.info

Track history (hours):
 
Tides and Currents Weather Stations Pressure Air Temp Water Temp Dewpoint Dewpoint Depression Visibility Wind Speed Wind Dir Waves Ship Positions

Wilson North

Last reported at 2018-Jun-20 23:00 UTC. Time now 2018-Jun-20 23:07 UTC.
Position N 55°05' E 014°05'.

Length 123 m; draft 7.5 m.

Type: Cargo ship. MMSI: 248313000.

Date/timePositionNaut miles runAvg speedWind from/ knotsBaromVisibWave heightAir tempDewpointWater temp
2018-Jun-20 23:00N 55°05' E 014°05'711.8
2018-Jun-20 22:26N 55°10' E 014°13'511.8
2018-Jun-20 22:00N 55°14' E 014°18'611.7
2018-Jun-20 21:30N 55°18' E 014°25'611.6
2018-Jun-20 21:00N 55°23' E 014°31'610.9
2018-Jun-20 20:28N 55°27' E 014°39'511.4
2018-Jun-20 20:00N 55°27' E 014°48'611.3
2018-Jun-20 19:29N 55°28' E 014°58'611.4
2018-Jun-20 19:00N 55°29' E 015°08'611.3
2018-Jun-20 18:30N 55°28' E 015°18'611.6
2018-Jun-20 17:58N 55°28' E 015°29'  
2018-Jun-18 03:17N 55°43' E 020°52'0 0.0
2018-Jun-18 02:23N 55°43' E 020°52'0 0.0
2018-Jun-17 23:58N 55°43' E 020°52'0 0.1
2018-Jun-17 23:29N 55°43' E 020°52'41 4.6
2018-Jun-17 14:24N 55°14' E 019°59'512.8
2018-Jun-17 14:00N 55°11' E 019°52'812.6
2018-Jun-17 13:20N 55°06' E 019°40'512.7
2018-Jun-17 12:57N 55°03' E 019°34'612.7
2018-Jun-17 12:28N 54°59' E 019°26'612.6
2018-Jun-17 12:00N 54°55' E 019°18'612.6
2018-Jun-17 11:30N 54°51' E 019°10'612.5
2018-Jun-17 11:00N 54°46' E 019°03'612.6
2018-Jun-17 10:30N 54°40' E 018°58'612.7
2018-Jun-17 10:00N 54°35' E 018°53'611.5
2018-Jun-17 09:30N 54°32' E 018°45'4 7.1
2018-Jun-17 09:00N 54°31' E 018°38'1 1.0
2018-Jun-17 08:30N 54°31' E 018°38'1 1.9
2018-Jun-17 08:00N 54°31' E 018°36'1 2.5
2018-Jun-17 07:30N 54°32' E 018°34'2 3.6
2018-Jun-17 06:59N 54°32' E 018°31'0 0.0
2018-Jun-17 06:29N 54°32' E 018°31'0 0.0
2018-Jun-17 05:59N 54°32' E 018°31'0 0.0
2018-Jun-17 05:29N 54°32' E 018°31'0 0.0
2018-Jun-17 04:59N 54°32' E 018°31'0 0.0
2018-Jun-17 04:29N 54°32' E 018°31'0 0.0
2018-Jun-17 03:59N 54°32' E 018°31'0 0.0
2018-Jun-17 03:29N 54°32' E 018°31'0 0.0
2018-Jun-17 02:59N 54°32' E 018°31'0 0.0
2018-Jun-17 02:29N 54°32' E 018°31'0 0.0
2018-Jun-17 01:59N 54°32' E 018°31'0 0.0
2018-Jun-17 01:29N 54°32' E 018°31'0 0.0
2018-Jun-17 00:59N 54°32' E 018°31'0 0.0
2018-Jun-17 00:29N 54°32' E 018°31'0 0.0
2018-Jun-16 23:59N 54°32' E 018°31'0 0.0
2018-Jun-16 23:29N 54°32' E 018°31'0 0.0
2018-Jun-16 22:59N 54°32' E 018°31'0 0.0
2018-Jun-16 22:29N 54°32' E 018°31'0 0.0
2018-Jun-16 21:59N 54°32' E 018°31'0 0.0
2018-Jun-16 21:29N 54°32' E 018°31'0 0.0
2018-Jun-16 20:59N 54°32' E 018°31'0 0.0
2018-Jun-16 20:29N 54°32' E 018°31'0 0.0
2018-Jun-16 19:59N 54°32' E 018°31'0 0.0
2018-Jun-16 19:29N 54°32' E 018°31'0 0.0
2018-Jun-16 18:59N 54°32' E 018°31'0 0.0
2018-Jun-16 18:29N 54°32' E 018°31'0 0.0
2018-Jun-16 17:59N 54°32' E 018°31'0 0.0
2018-Jun-16 17:29N 54°32' E 018°31'0 0.0
2018-Jun-16 16:59N 54°32' E 018°31'0 0.0
2018-Jun-16 16:29N 54°32' E 018°31'0 0.0
2018-Jun-16 15:59N 54°32' E 018°31'0 0.0
2018-Jun-16 15:29N 54°32' E 018°31'0 0.0
2018-Jun-16 14:59N 54°32' E 018°31'0 0.0
2018-Jun-16 14:29N 54°32' E 018°31'0 0.0
2018-Jun-16 13:59N 54°32' E 018°31'0 0.0
2018-Jun-16 13:29N 54°32' E 018°31'0 0.0
2018-Jun-16 12:59N 54°32' E 018°31'0 0.0
2018-Jun-16 12:29N 54°32' E 018°31'0 0.0
2018-Jun-16 11:59N 54°32' E 018°31'0 0.0
2018-Jun-16 11:29N 54°32' E 018°31'0 0.0
2018-Jun-16 10:59N 54°32' E 018°31'0 0.0
2018-Jun-16 10:29N 54°32' E 018°31'0 0.0
2018-Jun-16 09:59N 54°32' E 018°31'0 0.0
2018-Jun-16 09:29N 54°32' E 018°31'0 0.0
2018-Jun-16 08:59N 54°32' E 018°31'0 0.0
2018-Jun-16 08:29N 54°32' E 018°31'0 0.0
2018-Jun-16 07:59N 54°32' E 018°31'0 0.0
2018-Jun-16 07:29N 54°32' E 018°31'0 0.0
2018-Jun-16 06:59N 54°32' E 018°31'0 0.0
2018-Jun-16 06:29N 54°32' E 018°31'0 0.0
2018-Jun-16 05:59N 54°32' E 018°31'0 0.0
2018-Jun-16 05:29N 54°32' E 018°31'0 0.0
2018-Jun-16 04:59N 54°32' E 018°31'0 0.0
2018-Jun-16 04:29N 54°32' E 018°31'0 0.0
2018-Jun-16 03:59N 54°32' E 018°31'0 0.0
2018-Jun-16 03:29N 54°32' E 018°31'0 0.0
2018-Jun-16 02:59N 54°32' E 018°31'0 0.0
2018-Jun-16 02:29N 54°32' E 018°31'0 0.0
2018-Jun-16 01:59N 54°32' E 018°31'0 0.0
2018-Jun-16 01:29N 54°32' E 018°31'0 0.0
2018-Jun-16 00:59N 54°32' E 018°31'0 0.0
2018-Jun-16 00:29N 54°32' E 018°31'0 0.0
2018-Jun-15 23:59N 54°32' E 018°31'0 0.0
2018-Jun-15 23:29N 54°32' E 018°31'0 0.0
2018-Jun-15 22:59N 54°32' E 018°31'0 0.0
2018-Jun-15 22:29N 54°32' E 018°31'0 0.0
2018-Jun-15 21:59N 54°32' E 018°31'0 0.0
2018-Jun-15 21:29N 54°32' E 018°31'0 0.0
2018-Jun-15 20:59N 54°32' E 018°31'0 0.0
2018-Jun-15 20:29N 54°32' E 018°31'0 0.0
2018-Jun-15 19:59N 54°32' E 018°31'0 0.0
2018-Jun-15 19:29N 54°32' E 018°31'0 0.0
2018-Jun-15 18:59N 54°32' E 018°31'0 0.0
2018-Jun-15 18:29N 54°32' E 018°31'0 0.0
2018-Jun-15 17:59N 54°32' E 018°31'0 0.0
2018-Jun-15 17:29N 54°32' E 018°31'0 0.0
2018-Jun-15 16:59N 54°32' E 018°31'0 0.0
2018-Jun-15 16:29N 54°32' E 018°31'0 0.0
2018-Jun-15 15:59N 54°32' E 018°31'0 0.0
2018-Jun-15 15:29N 54°32' E 018°31'0 0.0
2018-Jun-15 14:59N 54°32' E 018°31'0 0.0
2018-Jun-15 14:29N 54°32' E 018°31'0 0.0
2018-Jun-15 13:59N 54°32' E 018°31'0 0.0
2018-Jun-15 13:29N 54°32' E 018°31'0 0.0
2018-Jun-15 12:59N 54°32' E 018°31'0 0.0
2018-Jun-15 12:29N 54°32' E 018°31'0 0.0
2018-Jun-15 11:59N 54°32' E 018°31'0 0.0
2018-Jun-15 11:29N 54°32' E 018°31'0 0.0
2018-Jun-15 10:59N 54°32' E 018°31'0 0.0
2018-Jun-15 10:29N 54°32' E 018°31'0 0.0
2018-Jun-15 09:59N 54°32' E 018°31'0 0.0
2018-Jun-15 09:29N 54°32' E 018°31'0 0.0
2018-Jun-15 08:59N 54°32' E 018°31'0 0.0
2018-Jun-15 08:29N 54°32' E 018°31'0 0.0
2018-Jun-15 07:59N 54°32' E 018°31'0 0.0
2018-Jun-15 07:29N 54°32' E 018°31'0 0.0
2018-Jun-15 06:59N 54°32' E 018°31'0 0.0
2018-Jun-15 06:29N 54°32' E 018°31'0 0.0
2018-Jun-15 05:59N 54°32' E 018°31'0 0.0
2018-Jun-15 05:29N 54°32' E 018°31'0 0.0
2018-Jun-15 04:59N 54°32' E 018°31'0 0.0
2018-Jun-15 04:29N 54°32' E 018°31'0 0.0
2018-Jun-15 03:59N 54°32' E 018°31'0 0.0
2018-Jun-15 03:29N 54°32' E 018°31'0 0.0
2018-Jun-15 02:59N 54°32' E 018°31'0 0.0
2018-Jun-15 02:29N 54°32' E 018°31'0 0.0
2018-Jun-15 01:59N 54°32' E 018°31'0 0.0
2018-Jun-15 01:29N 54°32' E 018°31'0 0.0
2018-Jun-15 00:59N 54°32' E 018°31'0 0.0
2018-Jun-15 00:29N 54°32' E 018°31'0 0.0
2018-Jun-14 23:59N 54°32' E 018°31'0 0.0
2018-Jun-14 23:29N 54°32' E 018°31'0 0.0
2018-Jun-14 22:59N 54°32' E 018°31'0 0.0
2018-Jun-14 22:29N 54°32' E 018°31'0 0.0
2018-Jun-14 21:59N 54°32' E 018°31'0 0.0
2018-Jun-14 21:29N 54°32' E 018°31'0 0.0
2018-Jun-14 20:59N 54°32' E 018°31'0 0.0
2018-Jun-14 20:29N 54°32' E 018°31'0 0.0
2018-Jun-14 19:59N 54°32' E 018°31'0 0.0
2018-Jun-14 19:29N 54°32' E 018°31'0 0.0
2018-Jun-14 18:59N 54°32' E 018°31'0 0.0
2018-Jun-14 18:29N 54°32' E 018°31'0 0.0
2018-Jun-14 17:59N 54°32' E 018°31'0 0.0
2018-Jun-14 17:29N 54°32' E 018°31'0 0.0
2018-Jun-14 16:59N 54°32' E 018°31'0 0.0
2018-Jun-14 16:29N 54°32' E 018°31'0 0.0
2018-Jun-14 15:59N 54°32' E 018°31'0 0.0
2018-Jun-14 15:29N 54°32' E 018°31'0 0.0
2018-Jun-14 14:59N 54°32' E 018°31'0 0.0
2018-Jun-14 14:29N 54°32' E 018°31'0 0.0
2018-Jun-14 13:59N 54°32' E 018°31'0 0.0
2018-Jun-14 13:29N 54°32' E 018°31'0 0.0
2018-Jun-14 12:59N 54°32' E 018°31'0 0.0
2018-Jun-14 12:29N 54°32' E 018°31'0 0.0
2018-Jun-14 11:59N 54°32' E 018°31'0 0.0
2018-Jun-14 11:29N 54°32' E 018°31'0 0.0
2018-Jun-14 10:59N 54°32' E 018°31'0 0.0
2018-Jun-14 10:29N 54°32' E 018°31'0 0.0
2018-Jun-14 09:59N 54°32' E 018°31'0 0.0
2018-Jun-14 09:29N 54°32' E 018°31'0 0.0
2018-Jun-14 08:59N 54°32' E 018°31'0 0.0
2018-Jun-14 08:29N 54°32' E 018°31'0 0.0
2018-Jun-14 07:59N 54°32' E 018°31'0 0.0
2018-Jun-14 07:29N 54°32' E 018°31'0 0.0
2018-Jun-14 06:59N 54°32' E 018°31'0 0.0
2018-Jun-14 06:29N 54°32' E 018°31'0 0.0
2018-Jun-14 05:59N 54°32' E 018°31'0 0.0
2018-Jun-14 05:29N 54°32' E 018°31'0 0.0
2018-Jun-14 04:59N 54°32' E 018°31'0 0.0
2018-Jun-14 04:29N 54°32' E 018°31'0 0.0
2018-Jun-14 03:59N 54°32' E 018°31'0 0.0
2018-Jun-14 03:29N 54°32' E 018°31'0 0.0
2018-Jun-14 02:59N 54°32' E 018°31'0 0.0
2018-Jun-14 02:29N 54°32' E 018°31'0 0.0
2018-Jun-14 01:59N 54°32' E 018°31'0 0.0
2018-Jun-14 01:29N 54°32' E 018°31'0 0.0
2018-Jun-14 00:59N 54°32' E 018°31'0 0.0
2018-Jun-14 00:29N 54°32' E 018°31'0 0.0
2018-Jun-13 23:59N 54°32' E 018°31'0 0.0
2018-Jun-13 23:29N 54°32' E 018°31'0 0.0
2018-Jun-13 22:59N 54°32' E 018°31'0 0.0
2018-Jun-13 22:29N 54°32' E 018°31'0 0.0
2018-Jun-13 21:59N 54°32' E 018°31'0 0.0
2018-Jun-13 21:29N 54°32' E 018°31'0 0.0
2018-Jun-13 20:59N 54°32' E 018°31'0 0.0
2018-Jun-13 20:29N 54°32' E 018°31'0 0.0
2018-Jun-13 19:59N 54°32' E 018°31'0 0.0
2018-Jun-13 19:29N 54°32' E 018°31'0 0.0
2018-Jun-13 18:59N 54°32' E 018°31'0 0.0
2018-Jun-13 18:29N 54°32' E 018°31'0 0.0
2018-Jun-13 17:59N 54°32' E 018°31'0 0.0
2018-Jun-13 17:29N 54°32' E 018°31'0 0.0
2018-Jun-13 16:59N 54°32' E 018°31'0 0.0
2018-Jun-13 16:29N 54°32' E 018°31'0 0.0
2018-Jun-13 15:59N 54°32' E 018°31'0 0.0
2018-Jun-13 15:29N 54°32' E 018°31'0 0.0
2018-Jun-13 14:59N 54°32' E 018°31'0 0.0
2018-Jun-13 14:29N 54°32' E 018°31'0 0.0
2018-Jun-13 13:59N 54°32' E 018°31'0 0.0
2018-Jun-13 13:26N 54°32' E 018°31'0 0.0
2018-Jun-13 12:59N 54°32' E 018°31'0 0.0
2018-Jun-13 12:29N 54°32' E 018°31'0 0.0
2018-Jun-13 11:59N 54°32' E 018°31'0 0.0
2018-Jun-13 11:29N 54°32' E 018°31'0 0.0
2018-Jun-13 10:59N 54°32' E 018°31'0 0.0
2018-Jun-13 10:29N 54°32' E 018°31'0 0.0
2018-Jun-13 09:59N 54°32' E 018°31'0 0.0
2018-Jun-13 09:29N 54°32' E 018°31'0 0.0
2018-Jun-13 08:59N 54°32' E 018°31'0 0.0
2018-Jun-13 08:29N 54°32' E 018°31'0 0.0
2018-Jun-13 07:59N 54°32' E 018°31'0 0.0
2018-Jun-13 07:29N 54°32' E 018°31'0 0.0
2018-Jun-13 06:59N 54°32' E 018°31'0 0.0
2018-Jun-13 06:29N 54°32' E 018°31'0 0.0
2018-Jun-13 05:59N 54°32' E 018°31'0 0.0
2018-Jun-13 05:29N 54°32' E 018°31'0 0.0
2018-Jun-13 04:59N 54°32' E 018°31'0 0.0
2018-Jun-13 04:29N 54°32' E 018°31'0 0.0
2018-Jun-13 03:59N 54°32' E 018°31'0 0.0
2018-Jun-13 03:29N 54°32' E 018°31'0 0.0
2018-Jun-13 02:59N 54°32' E 018°31'0 0.0
2018-Jun-13 02:29N 54°32' E 018°31'0 0.0
2018-Jun-13 01:59N 54°32' E 018°31'0 0.0
2018-Jun-13 01:29N 54°32' E 018°31'0 0.0
2018-Jun-13 00:59N 54°32' E 018°31'0 0.0
2018-Jun-13 00:29N 54°32' E 018°31'0 0.0
2018-Jun-12 23:59N 54°32' E 018°31'0 0.0
2018-Jun-12 23:29N 54°32' E 018°31'0 0.0
2018-Jun-12 22:59N 54°32' E 018°31'0 0.0
2018-Jun-12 22:29N 54°32' E 018°31'0 0.0
2018-Jun-12 21:59N 54°32' E 018°31'0 0.0
2018-Jun-12 21:29N 54°32' E 018°31'0 0.0
2018-Jun-12 20:59N 54°32' E 018°31'0 0.0
2018-Jun-12 20:26N 54°32' E 018°31'0 0.0
2018-Jun-12 19:59N 54°32' E 018°31'0 0.0
2018-Jun-12 19:29N 54°32' E 018°31'0 0.0
2018-Jun-12 18:59N 54°32' E 018°31'0 0.0
2018-Jun-12 18:29N 54°32' E 018°31'0 0.0
2018-Jun-12 17:56N 54°32' E 018°31'0 0.0
2018-Jun-12 17:29N 54°32' E 018°31'0 0.0
2018-Jun-12 16:59N 54°32' E 018°31'0 0.0
2018-Jun-12 16:29N 54°32' E 018°31'0 0.0
2018-Jun-12 15:59N 54°32' E 018°31'0 0.0
2018-Jun-12 15:29N 54°32' E 018°31'0 0.0
2018-Jun-12 14:59N 54°32' E 018°31'0 0.0
2018-Jun-12 14:29N 54°32' E 018°31'0 0.0
2018-Jun-12 13:59N 54°32' E 018°31'0 0.0
2018-Jun-12 13:29N 54°32' E 018°31'0 0.0
2018-Jun-12 12:59N 54°32' E 018°31'0 0.0
2018-Jun-12 12:29N 54°32' E 018°31'0 0.0
2018-Jun-12 11:59N 54°32' E 018°31'0 0.0
2018-Jun-12 11:29N 54°32' E 018°31'0 0.0
2018-Jun-12 10:59N 54°32' E 018°31'0 0.0
2018-Jun-12 10:29N 54°32' E 018°31'0 0.0
2018-Jun-12 09:59N 54°32' E 018°31'0 0.0
2018-Jun-12 09:29N 54°32' E 018°31'0 0.0
2018-Jun-12 08:59N 54°32' E 018°31'0 0.0
2018-Jun-12 08:29N 54°32' E 018°31'0 0.0
2018-Jun-12 07:59N 54°32' E 018°31'0 0.0
2018-Jun-12 06:14N 54°32' E 018°31'0 0.0
2018-Jun-12 05:59N 54°32' E 018°31'0 0.0
2018-Jun-12 05:29N 54°32' E 018°31'0 0.0
2018-Jun-12 04:59N 54°32' E 018°31'0 0.0
2018-Jun-12 04:29N 54°32' E 018°31'0 0.0
2018-Jun-12 03:59N 54°32' E 018°31'0 0.0
2018-Jun-12 03:29N 54°32' E 018°31'0 0.0
2018-Jun-12 02:59N 54°32' E 018°31'0 0.0
2018-Jun-12 02:29N 54°32' E 018°31'0 0.0
2018-Jun-12 01:59N 54°32' E 018°31'0 0.0
2018-Jun-12 01:29N 54°32' E 018°31'0 0.0
2018-Jun-12 00:59N 54°32' E 018°31'0 0.0
2018-Jun-12 00:29N 54°32' E 018°31'0 0.0
2018-Jun-11 23:59N 54°32' E 018°31'0 0.0
2018-Jun-11 23:29N 54°32' E 018°31'0 0.0
2018-Jun-11 22:59N 54°32' E 018°31'0 0.0
2018-Jun-11 22:29N 54°32' E 018°31'0 0.0
2018-Jun-11 21:59N 54°32' E 018°31'0 0.0
2018-Jun-11 21:29N 54°32' E 018°31'0 0.0
2018-Jun-11 20:59N 54°32' E 018°31'0 0.0
2018-Jun-11 20:29N 54°32' E 018°31'0 0.0
2018-Jun-11 19:59N 54°32' E 018°31'0 0.0
2018-Jun-11 19:29N 54°32' E 018°31'0 0.0
2018-Jun-11 18:59N 54°32' E 018°31'0 0.0
2018-Jun-11 18:29N 54°32' E 018°31'0 0.0
2018-Jun-11 17:59N 54°32' E 018°31'0 0.0
2018-Jun-11 17:29N 54°32' E 018°31'0 0.0
2018-Jun-11 16:59N 54°32' E 018°31'0 0.0
2018-Jun-11 16:29N 54°32' E 018°31'0 0.0
2018-Jun-11 15:59N 54°32' E 018°31'0 0.0
2018-Jun-11 15:29N 54°32' E 018°31'0 0.0
2018-Jun-11 14:59N 54°32' E 018°31'0 0.0
2018-Jun-11 14:29N 54°32' E 018°31'0 0.0
2018-Jun-11 13:59N 54°32' E 018°31'0 0.0
2018-Jun-11 13:29N 54°32' E 018°31'0 0.0
2018-Jun-11 12:59N 54°32' E 018°31'0 0.0
2018-Jun-11 12:29N 54°32' E 018°31'0 0.0
2018-Jun-11 11:59N 54°32' E 018°31'0 0.0
2018-Jun-11 11:29N 54°32' E 018°31'0 0.0
2018-Jun-11 10:59N 54°32' E 018°31'0 0.0
2018-Jun-11 10:29N 54°32' E 018°31'0 0.0
2018-Jun-11 09:59N 54°32' E 018°31'0 0.0
2018-Jun-11 09:29N 54°32' E 018°31'0 0.0
2018-Jun-11 08:59N 54°32' E 018°31'0 0.0
2018-Jun-11 08:29N 54°32' E 018°31'0 0.0
2018-Jun-11 07:59N 54°32' E 018°31'0 0.0
2018-Jun-11 07:29N 54°32' E 018°31'0 0.0
2018-Jun-11 06:59N 54°32' E 018°31'0 0.0
2018-Jun-11 06:29N 54°32' E 018°31'0 0.0
2018-Jun-11 05:59N 54°32' E 018°31'0 0.0
2018-Jun-11 05:29N 54°32' E 018°31'0 0.0
2018-Jun-11 04:59N 54°32' E 018°31'0 0.0
2018-Jun-11 04:29N 54°32' E 018°31'0 0.0
2018-Jun-11 03:59N 54°32' E 018°31'0 0.0
2018-Jun-11 03:29N 54°32' E 018°31'0 0.0
2018-Jun-11 02:59N 54°32' E 018°31'0 0.0
2018-Jun-11 02:29N 54°32' E 018°31'0 0.0
2018-Jun-11 01:59N 54°32' E 018°31'0 0.0
2018-Jun-11 01:29N 54°32' E 018°31'0 0.0
2018-Jun-11 00:59N 54°32' E 018°31'0 0.0
2018-Jun-11 00:29N 54°32' E 018°31'0 0.0
2018-Jun-10 23:56N 54°32' E 018°31'0 0.0
2018-Jun-10 23:29N 54°32' E 018°31'  
Track history (hours):
 
Tides and Currents Weather Stations Pressure Air Temp Water Temp Dewpoint Dewpoint Depression Visibility Wind Speed Wind Dir Waves Ship Positions

Wilson North

Last reported at 2018-Jun-20 23:00 UTC. Time now 2018-Jun-20 23:07 UTC.
Position N 55°05' E 014°05'.

Length 123 m; draft 7.5 m.

Type: Cargo ship. MMSI: 248313000.

Date/timePositionNaut miles runAvg speedWind from/ knotsBaromVisibWave heightAir tempDewpointWater temp
2018-Jun-20 23:00N 55°05' E 014°05'711.8
2018-Jun-20 22:26N 55°10' E 014°13'511.8
2018-Jun-20 22:00N 55°14' E 014°18'611.7
2018-Jun-20 21:30N 55°18' E 014°25'611.6
2018-Jun-20 21:00N 55°23' E 014°31'610.9
2018-Jun-20 20:28N 55°27' E 014°39'511.4
2018-Jun-20 20:00N 55°27' E 014°48'611.3
2018-Jun-20 19:29N 55°28' E 014°58'611.4
2018-Jun-20 19:00N 55°29' E 015°08'611.3
2018-Jun-20 18:30N 55°28' E 015°18'611.6
2018-Jun-20 17:58N 55°28' E 015°29'  
2018-Jun-18 03:17N 55°43' E 020°52'0 0.0
2018-Jun-18 02:23N 55°43' E 020°52'0 0.0
2018-Jun-17 23:58N 55°43' E 020°52'0 0.1
2018-Jun-17 23:29N 55°43' E 020°52'41 4.6
2018-Jun-17 14:24N 55°14' E 019°59'512.8
2018-Jun-17 14:00N 55°11' E 019°52'812.6
2018-Jun-17 13:20N 55°06' E 019°40'512.7
2018-Jun-17 12:57N 55°03' E 019°34'612.7
2018-Jun-17 12:28N 54°59' E 019°26'612.6
2018-Jun-17 12:00N 54°55' E 019°18'612.6
2018-Jun-17 11:30N 54°51' E 019°10'612.5
2018-Jun-17 11:00N 54°46' E 019°03'612.6
2018-Jun-17 10:30N 54°40' E 018°58'612.7
2018-Jun-17 10:00N 54°35' E 018°53'611.5
2018-Jun-17 09:30N 54°32' E 018°45'4 7.1
2018-Jun-17 09:00N 54°31' E 018°38'1 1.0
2018-Jun-17 08:30N 54°31' E 018°38'1 1.9
2018-Jun-17 08:00N 54°31' E 018°36'1 2.5
2018-Jun-17 07:30N 54°32' E 018°34'2 3.6
2018-Jun-17 06:59N 54°32' E 018°31'0 0.0
2018-Jun-17 06:29N 54°32' E 018°31'0 0.0
2018-Jun-17 05:59N 54°32' E 018°31'0 0.0
2018-Jun-17 05:29N 54°32' E 018°31'0 0.0
2018-Jun-17 04:59N 54°32' E 018°31'0 0.0
2018-Jun-17 04:29N 54°32' E 018°31'0 0.0
2018-Jun-17 03:59N 54°32' E 018°31'0 0.0
2018-Jun-17 03:29N 54°32' E 018°31'0 0.0
2018-Jun-17 02:59N 54°32' E 018°31'0 0.0
2018-Jun-17 02:29N 54°32' E 018°31'0 0.0
2018-Jun-17 01:59N 54°32' E 018°31'0 0.0
2018-Jun-17 01:29N 54°32' E 018°31'0 0.0
2018-Jun-17 00:59N 54°32' E 018°31'0 0.0
2018-Jun-17 00:29N 54°32' E 018°31'0 0.0
2018-Jun-16 23:59N 54°32' E 018°31'0 0.0
2018-Jun-16 23:29N 54°32' E 018°31'0 0.0
2018-Jun-16 22:59N 54°32' E 018°31'0 0.0
2018-Jun-16 22:29N 54°32' E 018°31'0 0.0
2018-Jun-16 21:59N 54°32' E 018°31'0 0.0
2018-Jun-16 21:29N 54°32' E 018°31'0 0.0
2018-Jun-16 20:59N 54°32' E 018°31'0 0.0
2018-Jun-16 20:29N 54°32' E 018°31'0 0.0
2018-Jun-16 19:59N 54°32' E 018°31'0 0.0
2018-Jun-16 19:29N 54°32' E 018°31'0 0.0
2018-Jun-16 18:59N 54°32' E 018°31'0 0.0
2018-Jun-16 18:29N 54°32' E 018°31'0 0.0
2018-Jun-16 17:59N 54°32' E 018°31'0 0.0
2018-Jun-16 17:29N 54°32' E 018°31'0 0.0
2018-Jun-16 16:59N 54°32' E 018°31'0 0.0
2018-Jun-16 16:29N 54°32' E 018°31'0 0.0
2018-Jun-16 15:59N 54°32' E 018°31'0 0.0
2018-Jun-16 15:29N 54°32' E 018°31'0 0.0
2018-Jun-16 14:59N 54°32' E 018°31'0 0.0
2018-Jun-16 14:29N 54°32' E 018°31'0 0.0
2018-Jun-16 13:59N 54°32' E 018°31'0 0.0
2018-Jun-16 13:29N 54°32' E 018°31'0 0.0
2018-Jun-16 12:59N 54°32' E 018°31'0 0.0
2018-Jun-16 12:29N 54°32' E 018°31'0 0.0
2018-Jun-16 11:59N 54°32' E 018°31'0 0.0
2018-Jun-16 11:29N 54°32' E 018°31'0 0.0
2018-Jun-16 10:59N 54°32' E 018°31'0 0.0
2018-Jun-16 10:29N 54°32' E 018°31'0 0.0
2018-Jun-16 09:59N 54°32' E 018°31'0 0.0
2018-Jun-16 09:29N 54°32' E 018°31'0 0.0
2018-Jun-16 08:59N 54°32' E 018°31'0 0.0
2018-Jun-16 08:29N 54°32' E 018°31'0 0.0
2018-Jun-16 07:59N 54°32' E 018°31'0 0.0
2018-Jun-16 07:29N 54°32' E 018°31'0 0.0
2018-Jun-16 06:59N 54°32' E 018°31'0 0.0
2018-Jun-16 06:29N 54°32' E 018°31'0 0.0
2018-Jun-16 05:59N 54°32' E 018°31'0 0.0
2018-Jun-16 05:29N 54°32' E 018°31'0 0.0
2018-Jun-16 04:59N 54°32' E 018°31'0 0.0
2018-Jun-16 04:29N 54°32' E 018°31'0 0.0
2018-Jun-16 03:59N 54°32' E 018°31'0 0.0
2018-Jun-16 03:29N 54°32' E 018°31'0 0.0
2018-Jun-16 02:59N 54°32' E 018°31'0 0.0
2018-Jun-16 02:29N 54°32' E 018°31'0 0.0
2018-Jun-16 01:59N 54°32' E 018°31'0 0.0
2018-Jun-16 01:29N 54°32' E 018°31'0 0.0
2018-Jun-16 00:59N 54°32' E 018°31'0 0.0
2018-Jun-16 00:29N 54°32' E 018°31'0 0.0
2018-Jun-15 23:59N 54°32' E 018°31'0 0.0
2018-Jun-15 23:29N 54°32' E 018°31'0 0.0
2018-Jun-15 22:59N 54°32' E 018°31'0 0.0
2018-Jun-15 22:29N 54°32' E 018°31'0 0.0
2018-Jun-15 21:59N 54°32' E 018°31'0 0.0
2018-Jun-15 21:29N 54°32' E 018°31'0 0.0
2018-Jun-15 20:59N 54°32' E 018°31'0 0.0
2018-Jun-15 20:29N 54°32' E 018°31'0 0.0
2018-Jun-15 19:59N 54°32' E 018°31'0 0.0
2018-Jun-15 19:29N 54°32' E 018°31'0 0.0
2018-Jun-15 18:59N 54°32' E 018°31'0 0.0
2018-Jun-15 18:29N 54°32' E 018°31'0 0.0
2018-Jun-15 17:59N 54°32' E 018°31'0 0.0
2018-Jun-15 17:29N 54°32' E 018°31'0 0.0
2018-Jun-15 16:59N 54°32' E 018°31'0 0.0
2018-Jun-15 16:29N 54°32' E 018°31'0 0.0
2018-Jun-15 15:59N 54°32' E 018°31'0 0.0
2018-Jun-15 15:29N 54°32' E 018°31'0 0.0
2018-Jun-15 14:59N 54°32' E 018°31'0 0.0
2018-Jun-15 14:29N 54°32' E 018°31'0 0.0
2018-Jun-15 13:59N 54°32' E 018°31'0 0.0
2018-Jun-15 13:29N 54°32' E 018°31'0 0.0
2018-Jun-15 12:59N 54°32' E 018°31'0 0.0
2018-Jun-15 12:29N 54°32' E 018°31'0 0.0
2018-Jun-15 11:59N 54°32' E 018°31'0 0.0
2018-Jun-15 11:29N 54°32' E 018°31'0 0.0
2018-Jun-15 10:59N 54°32' E 018°31'0 0.0
2018-Jun-15 10:29N 54°32' E 018°31'0 0.0
2018-Jun-15 09:59N 54°32' E 018°31'0 0.0
2018-Jun-15 09:29N 54°32' E 018°31'0 0.0
2018-Jun-15 08:59N 54°32' E 018°31'0 0.0
2018-Jun-15 08:29N 54°32' E 018°31'0 0.0
2018-Jun-15 07:59N 54°32' E 018°31'0 0.0
2018-Jun-15 07:29N 54°32' E 018°31'0 0.0
2018-Jun-15 06:59N 54°32' E 018°31'0 0.0
2018-Jun-15 06:29N 54°32' E 018°31'0 0.0
2018-Jun-15 05:59N 54°32' E 018°31'0 0.0
2018-Jun-15 05:29N 54°32' E 018°31'0 0.0
2018-Jun-15 04:59N 54°32' E 018°31'0 0.0
2018-Jun-15 04:29N 54°32' E 018°31'0 0.0
2018-Jun-15 03:59N 54°32' E 018°31'0 0.0
2018-Jun-15 03:29N 54°32' E 018°31'0 0.0
2018-Jun-15 02:59N 54°32' E 018°31'0 0.0
2018-Jun-15 02:29N 54°32' E 018°31'0 0.0
2018-Jun-15 01:59N 54°32' E 018°31'0 0.0
2018-Jun-15 01:29N 54°32' E 018°31'0 0.0
2018-Jun-15 00:59N 54°32' E 018°31'0 0.0
2018-Jun-15 00:29N 54°32' E 018°31'0 0.0
2018-Jun-14 23:59N 54°32' E 018°31'0 0.0
2018-Jun-14 23:29N 54°32' E 018°31'0 0.0
2018-Jun-14 22:59N 54°32' E 018°31'0 0.0
2018-Jun-14 22:29N 54°32' E 018°31'0 0.0
2018-Jun-14 21:59N 54°32' E 018°31'0 0.0
2018-Jun-14 21:29N 54°32' E 018°31'0 0.0
2018-Jun-14 20:59N 54°32' E 018°31'0 0.0
2018-Jun-14 20:29N 54°32' E 018°31'0 0.0
2018-Jun-14 19:59N 54°32' E 018°31'0 0.0
2018-Jun-14 19:29N 54°32' E 018°31'0 0.0
2018-Jun-14 18:59N 54°32' E 018°31'0 0.0
2018-Jun-14 18:29N 54°32' E 018°31'0 0.0
2018-Jun-14 17:59N 54°32' E 018°31'0 0.0
2018-Jun-14 17:29N 54°32' E 018°31'0 0.0
2018-Jun-14 16:59N 54°32' E 018°31'0 0.0
2018-Jun-14 16:29N 54°32' E 018°31'0 0.0
2018-Jun-14 15:59N 54°32' E 018°31'0 0.0
2018-Jun-14 15:29N 54°32' E 018°31'0 0.0
2018-Jun-14 14:59N 54°32' E 018°31'0 0.0
2018-Jun-14 14:29N 54°32' E 018°31'0 0.0
2018-Jun-14 13:59N 54°32' E 018°31'0 0.0
2018-Jun-14 13:29N 54°32' E 018°31'0 0.0
2018-Jun-14 12:59N 54°32' E 018°31'0 0.0
2018-Jun-14 12:29N 54°32' E 018°31'0 0.0
2018-Jun-14 11:59N 54°32' E 018°31'0 0.0
2018-Jun-14 11:29N 54°32' E 018°31'0 0.0
2018-Jun-14 10:59N 54°32' E 018°31'0 0.0
2018-Jun-14 10:29N 54°32' E 018°31'0 0.0
2018-Jun-14 09:59N 54°32' E 018°31'0 0.0
2018-Jun-14 09:29N 54°32' E 018°31'0 0.0
2018-Jun-14 08:59N 54°32' E 018°31'0 0.0
2018-Jun-14 08:29N 54°32' E 018°31'0 0.0
2018-Jun-14 07:59N 54°32' E 018°31'0 0.0
2018-Jun-14 07:29N 54°32' E 018°31'0 0.0
2018-Jun-14 06:59N 54°32' E 018°31'0 0.0
2018-Jun-14 06:29N 54°32' E 018°31'0 0.0
2018-Jun-14 05:59N 54°32' E 018°31'0 0.0
2018-Jun-14 05:29N 54°32' E 018°31'0 0.0
2018-Jun-14 04:59N 54°32' E 018°31'0 0.0
2018-Jun-14 04:29N 54°32' E 018°31'0 0.0
2018-Jun-14 03:59N 54°32' E 018°31'0 0.0
2018-Jun-14 03:29N 54°32' E 018°31'0 0.0
2018-Jun-14 02:59N 54°32' E 018°31'0 0.0
2018-Jun-14 02:29N 54°32' E 018°31'0 0.0
2018-Jun-14 01:59N 54°32' E 018°31'0 0.0
2018-Jun-14 01:29N 54°32' E 018°31'0 0.0
2018-Jun-14 00:59N 54°32' E 018°31'0 0.0
2018-Jun-14 00:29N 54°32' E 018°31'0 0.0
2018-Jun-13 23:59N 54°32' E 018°31'0 0.0
2018-Jun-13 23:29N 54°32' E 018°31'0 0.0
2018-Jun-13 22:59N 54°32' E 018°31'0 0.0
2018-Jun-13 22:29N 54°32' E 018°31'0 0.0
2018-Jun-13 21:59N 54°32' E 018°31'0 0.0
2018-Jun-13 21:29N 54°32' E 018°31'0 0.0
2018-Jun-13 20:59N 54°32' E 018°31'0 0.0
2018-Jun-13 20:29N 54°32' E 018°31'0 0.0
2018-Jun-13 19:59N 54°32' E 018°31'0 0.0
2018-Jun-13 19:29N 54°32' E 018°31'0 0.0
2018-Jun-13 18:59N 54°32' E 018°31'0 0.0
2018-Jun-13 18:29N 54°32' E 018°31'0 0.0
2018-Jun-13 17:59N 54°32' E 018°31'0 0.0
2018-Jun-13 17:29N 54°32' E 018°31'0 0.0
2018-Jun-13 16:59N 54°32' E 018°31'0 0.0
2018-Jun-13 16:29N 54°32' E 018°31'0 0.0
2018-Jun-13 15:59N 54°32' E 018°31'0 0.0
2018-Jun-13 15:29N 54°32' E 018°31'0 0.0
2018-Jun-13 14:59N 54°32' E 018°31'0 0.0
2018-Jun-13 14:29N 54°32' E 018°31'0 0.0
2018-Jun-13 13:59N 54°32' E 018°31'0 0.0
2018-Jun-13 13:26N 54°32' E 018°31'0 0.0
2018-Jun-13 12:59N 54°32' E 018°31'0 0.0
2018-Jun-13 12:29N 54°32' E 018°31'0 0.0
2018-Jun-13 11:59N 54°32' E 018°31'0 0.0
2018-Jun-13 11:29N 54°32' E 018°31'0 0.0
2018-Jun-13 10:59N 54°32' E 018°31'0 0.0
2018-Jun-13 10:29N 54°32' E 018°31'0 0.0
2018-Jun-13 09:59N 54°32' E 018°31'0 0.0
2018-Jun-13 09:29N 54°32' E 018°31'0 0.0
2018-Jun-13 08:59N 54°32' E 018°31'0 0.0
2018-Jun-13 08:29N 54°32' E 018°31'0 0.0
2018-Jun-13 07:59N 54°32' E 018°31'0 0.0
2018-Jun-13 07:29N 54°32' E 018°31'0 0.0
2018-Jun-13 06:59N 54°32' E 018°31'0 0.0
2018-Jun-13 06:29N 54°32' E 018°31'0 0.0
2018-Jun-13 05:59N 54°32' E 018°31'0 0.0
2018-Jun-13 05:29N 54°32' E 018°31'0 0.0
2018-Jun-13 04:59N 54°32' E 018°31'0 0.0
2018-Jun-13 04:29N 54°32' E 018°31'0 0.0
2018-Jun-13 03:59N 54°32' E 018°31'0 0.0
2018-Jun-13 03:29N 54°32' E 018°31'0 0.0
2018-Jun-13 02:59N 54°32' E 018°31'0 0.0
2018-Jun-13 02:29N 54°32' E 018°31'0 0.0
2018-Jun-13 01:59N 54°32' E 018°31'0 0.0
2018-Jun-13 01:29N 54°32' E 018°31'0 0.0
2018-Jun-13 00:59N 54°32' E 018°31'0 0.0
2018-Jun-13 00:29N 54°32' E 018°31'0 0.0
2018-Jun-12 23:59N 54°32' E 018°31'0 0.0
2018-Jun-12 23:29N 54°32' E 018°31'0 0.0
2018-Jun-12 22:59N 54°32' E 018°31'0 0.0
2018-Jun-12 22:29N 54°32' E 018°31'0 0.0
2018-Jun-12 21:59N 54°32' E 018°31'0 0.0
2018-Jun-12 21:29N 54°32' E 018°31'0 0.0
2018-Jun-12 20:59N 54°32' E 018°31'0 0.0
2018-Jun-12 20:26N 54°32' E 018°31'0 0.0
2018-Jun-12 19:59N 54°32' E 018°31'0 0.0
2018-Jun-12 19:29N 54°32' E 018°31'0 0.0
2018-Jun-12 18:59N 54°32' E 018°31'0 0.0
2018-Jun-12 18:29N 54°32' E 018°31'0 0.0
2018-Jun-12 17:56N 54°32' E 018°31'0 0.0
2018-Jun-12 17:29N 54°32' E 018°31'0 0.0
2018-Jun-12 16:59N 54°32' E 018°31'0 0.0
2018-Jun-12 16:29N 54°32' E 018°31'0 0.0
2018-Jun-12 15:59N 54°32' E 018°31'0 0.0
2018-Jun-12 15:29N 54°32' E 018°31'0 0.0
2018-Jun-12 14:59N 54°32' E 018°31'0 0.0
2018-Jun-12 14:29N 54°32' E 018°31'0 0.0
2018-Jun-12 13:59N 54°32' E 018°31'0 0.0
2018-Jun-12 13:29N 54°32' E 018°31'0 0.0
2018-Jun-12 12:59N 54°32' E 018°31'0 0.0
2018-Jun-12 12:29N 54°32' E 018°31'0 0.0
2018-Jun-12 11:59N 54°32' E 018°31'0 0.0
2018-Jun-12 11:29N 54°32' E 018°31'0 0.0
2018-Jun-12 10:59N 54°32' E 018°31'0 0.0
2018-Jun-12 10:29N 54°32' E 018°31'0 0.0
2018-Jun-12 09:59N 54°32' E 018°31'0 0.0
2018-Jun-12 09:29N 54°32' E 018°31'0 0.0
2018-Jun-12 08:59N 54°32' E 018°31'0 0.0
2018-Jun-12 08:29N 54°32' E 018°31'0 0.0
2018-Jun-12 07:59N 54°32' E 018°31'0 0.0
2018-Jun-12 06:14N 54°32' E 018°31'0 0.0
2018-Jun-12 05:59N 54°32' E 018°31'0 0.0
2018-Jun-12 05:29N 54°32' E 018°31'0 0.0
2018-Jun-12 04:59N 54°32' E 018°31'0 0.0
2018-Jun-12 04:29N 54°32' E 018°31'0 0.0
2018-Jun-12 03:59N 54°32' E 018°31'0 0.0
2018-Jun-12 03:29N 54°32' E 018°31'0 0.0
2018-Jun-12 02:59N 54°32' E 018°31'0 0.0
2018-Jun-12 02:29N 54°32' E 018°31'0 0.0
2018-Jun-12 01:59N 54°32' E 018°31'0 0.0
2018-Jun-12 01:29N 54°32' E 018°31'0 0.0
2018-Jun-12 00:59N 54°32' E 018°31'0 0.0
2018-Jun-12 00:29N 54°32' E 018°31'0 0.0
2018-Jun-11 23:59N 54°32' E 018°31'0 0.0
2018-Jun-11 23:29N 54°32' E 018°31'0 0.0
2018-Jun-11 22:59N 54°32' E 018°31'0 0.0
2018-Jun-11 22:29N 54°32' E 018°31'0 0.0
2018-Jun-11 21:59N 54°32' E 018°31'0 0.0
2018-Jun-11 21:29N 54°32' E 018°31'0 0.0
2018-Jun-11 20:59N 54°32' E 018°31'0 0.0
2018-Jun-11 20:29N 54°32' E 018°31'0 0.0
2018-Jun-11 19:59N 54°32' E 018°31'0 0.0
2018-Jun-11 19:29N 54°32' E 018°31'0 0.0
2018-Jun-11 18:59N 54°32' E 018°31'0 0.0
2018-Jun-11 18:29N 54°32' E 018°31'0 0.0
2018-Jun-11 17:59N 54°32' E 018°31'0 0.0
2018-Jun-11 17:29N 54°32' E 018°31'0 0.0
2018-Jun-11 16:59N 54°32' E 018°31'0 0.0
2018-Jun-11 16:29N 54°32' E 018°31'0 0.0
2018-Jun-11 15:59N 54°32' E 018°31'0 0.0
2018-Jun-11 15:29N 54°32' E 018°31'0 0.0
2018-Jun-11 14:59N 54°32' E 018°31'0 0.0
2018-Jun-11 14:29N 54°32' E 018°31'0 0.0
2018-Jun-11 13:59N 54°32' E 018°31'0 0.0
2018-Jun-11 13:29N 54°32' E 018°31'0 0.0
2018-Jun-11 12:59N 54°32' E 018°31'0 0.0
2018-Jun-11 12:29N 54°32' E 018°31'0 0.0
2018-Jun-11 11:59N 54°32' E 018°31'0 0.0
2018-Jun-11 11:29N 54°32' E 018°31'0 0.0
2018-Jun-11 10:59N 54°32' E 018°31'0 0.0
2018-Jun-11 10:29N 54°32' E 018°31'0 0.0
2018-Jun-11 09:59N 54°32' E 018°31'0 0.0
2018-Jun-11 09:29N 54°32' E 018°31'0 0.0
2018-Jun-11 08:59N 54°32' E 018°31'0 0.0
2018-Jun-11 08:29N 54°32' E 018°31'0 0.0
2018-Jun-11 07:59N 54°32' E 018°31'0 0.0
2018-Jun-11 07:29N 54°32' E 018°31'0 0.0
2018-Jun-11 06:59N 54°32' E 018°31'0 0.0
2018-Jun-11 06:29N 54°32' E 018°31'0 0.0
2018-Jun-11 05:59N 54°32' E 018°31'0 0.0
2018-Jun-11 05:29N 54°32' E 018°31'0 0.0
2018-Jun-11 04:59N 54°32' E 018°31'0 0.0
2018-Jun-11 04:29N 54°32' E 018°31'0 0.0
2018-Jun-11 03:59N 54°32' E 018°31'0 0.0
2018-Jun-11 03:29N 54°32' E 018°31'0 0.0
2018-Jun-11 02:59N 54°32' E 018°31'0 0.0
2018-Jun-11 02:29N 54°32' E 018°31'0 0.0
2018-Jun-11 01:59N 54°32' E 018°31'0 0.0
2018-Jun-11 01:29N 54°32' E 018°31'0 0.0
2018-Jun-11 00:59N 54°32' E 018°31'0 0.0
2018-Jun-11 00:29N 54°32' E 018°31'0 0.0
2018-Jun-10 23:56N 54°32' E 018°31'0 0.0
2018-Jun-10 23:29N 54°32' E 018°31'  

Dump ship's entire track history